sensor_id;sensor_type;location;lat;lon;timestamp;P1;durP1;ratioP1;P2;durP2;ratioP2
47715;SDS011;33476;50.984;3.538;2022-09-01T00:01:43;3.70;;;0.30;;
47715;SDS011;33476;50.984;3.538;2022-09-01T00:04:12;1.95;;;0.20;;
47715;SDS011;33476;50.984;3.538;2022-09-01T00:06:40;1.40;;;0.20;;
47715;SDS011;33476;50.984;3.538;2022-09-01T00:09:10;2.40;;;0.30;;
47715;SDS011;33476;50.984;3.538;2022-09-01T00:11:38;1.42;;;0.17;;
47715;SDS011;33476;50.984;3.538;2022-09-01T00:14:05;0.65;;;0.10;;
47715;SDS011;33476;50.984;3.538;2022-09-01T00:16:32;2.95;;;0.10;;
47715;SDS011;33476;50.984;3.538;2022-09-01T00:18:57;2.78;;;0.30;;
47715;SDS011;33476;50.984;3.538;2022-09-01T00:21:24;1.08;;;0.30;;
47715;SDS011;33476;50.984;3.538;2022-09-01T00:23:52;3.77;;;0.43;;
47715;SDS011;33476;50.984;3.538;2022-09-01T00:26:18;0.43;;;0.17;;
47715;SDS011;33476;50.984;3.538;2022-09-01T00:28:43;1.20;;;0.20;;
47715;SDS011;33476;50.984;3.538;2022-09-01T00:31:09;1.70;;;0.30;;
47715;SDS011;33476;50.984;3.538;2022-09-01T00:33:35;1.98;;;0.30;;
47715;SDS011;33476;50.984;3.538;2022-09-01T00:36:01;0.85;;;0.17;;
47715;SDS011;33476;50.984;3.538;2022-09-01T00:38:27;3.58;;;0.20;;
47715;SDS011;33476;50.984;3.538;2022-09-01T00:40:53;1.17;;;0.22;;
47715;SDS011;33476;50.984;3.538;2022-09-01T00:43:23;2.55;;;0.20;;
47715;SDS011;33476;50.984;3.538;2022-09-01T00:46:05;1.55;;;0.10;;
47715;SDS011;33476;50.984;3.538;2022-09-01T00:48:34;3.13;;;0.28;;
47715;SDS011;33476;50.984;3.538;2022-09-01T00:51:00;3.20;;;0.20;;
47715;SDS011;33476;50.984;3.538;2022-09-01T00:53:26;2.47;;;0.30;;
47715;SDS011;33476;50.984;3.538;2022-09-01T00:55:52;1.15;;;0.20;;
47715;SDS011;33476;50.984;3.538;2022-09-01T00:58:17;1.08;;;0.20;;
47715;SDS011;33476;50.984;3.538;2022-09-01T01:00:42;1.65;;;0.30;;
47715;SDS011;33476;50.984;3.538;2022-09-01T01:03:12;4.22;;;0.30;;
47715;SDS011;33476;50.984;3.538;2022-09-01T01:05:43;5.03;;;0.40;;
47715;SDS011;33476;50.984;3.538;2022-09-01T01:08:17;1.20;;;0.38;;
47715;SDS011;33476;50.984;3.538;2022-09-01T01:10:54;4.63;;;0.40;;
47715;SDS011;33476;50.984;3.538;2022-09-01T01:13:20;5.03;;;0.30;;
47715;SDS011;33476;50.984;3.538;2022-09-01T01:15:45;2.15;;;0.35;;
47715;SDS011;33476;50.984;3.538;2022-09-01T01:18:12;2.45;;;0.45;;
47715;SDS011;33476;50.984;3.538;2022-09-01T01:20:38;3.55;;;0.57;;
47715;SDS011;33476;50.984;3.538;2022-09-01T01:28:31;1.02;;;0.32;;
47715;SDS011;33476;50.984;3.538;2022-09-01T01:31:01;1.42;;;0.30;;
47715;SDS011;33476;50.984;3.538;2022-09-01T01:33:41;1.73;;;0.30;;
47715;SDS011;33476;50.984;3.538;2022-09-01T01:36:13;1.38;;;0.30;;
47715;SDS011;33476;50.984;3.538;2022-09-01T01:38:44;2.90;;;0.30;;
47715;SDS011;33476;50.984;3.538;2022-09-01T01:41:11;4.43;;;0.43;;
47715;SDS011;33476;50.984;3.538;2022-09-01T01:43:39;4.65;;;0.43;;
47715;SDS011;33476;50.984;3.538;2022-09-01T01:46:06;3.60;;;0.30;;
47715;SDS011;33476;50.984;3.538;2022-09-01T01:48:34;4.50;;;0.30;;
47715;SDS011;33476;50.984;3.538;2022-09-01T01:51:02;3.97;;;0.32;;
47715;SDS011;33476;50.984;3.538;2022-09-01T01:53:29;2.40;;;0.47;;
47715;SDS011;33476;50.984;3.538;2022-09-01T01:55:55;2.53;;;0.20;;
47715;SDS011;33476;50.984;3.538;2022-09-01T01:58:22;0.65;;;0.30;;
47715;SDS011;33476;50.984;3.538;2022-09-01T02:00:49;2.63;;;0.40;;
47715;SDS011;33476;50.984;3.538;2022-09-01T02:03:17;0.90;;;0.35;;
47715;SDS011;33476;50.984;3.538;2022-09-01T02:05:45;2.95;;;0.30;;
47715;SDS011;33476;50.984;3.538;2022-09-01T02:08:12;2.78;;;0.30;;
47715;SDS011;33476;50.984;3.538;2022-09-01T02:10:43;2.95;;;0.35;;
47715;SDS011;33476;50.984;3.538;2022-09-01T02:13:11;2.88;;;0.25;;
47715;SDS011;33476;50.984;3.538;2022-09-01T02:15:41;4.97;;;0.30;;
47715;SDS011;33476;50.984;3.538;2022-09-01T02:18:12;5.43;;;0.50;;
47715;SDS011;33476;50.984;3.538;2022-09-01T02:20:42;4.18;;;0.38;;
47715;SDS011;33476;50.984;3.538;2022-09-01T02:23:09;0.60;;;0.22;;
47715;SDS011;33476;50.984;3.538;2022-09-01T02:25:36;2.58;;;0.35;;
47715;SDS011;33476;50.984;3.538;2022-09-01T02:28:07;1.60;;;0.32;;
47715;SDS011;33476;50.984;3.538;2022-09-01T02:30:39;1.58;;;0.20;;
47715;SDS011;33476;50.984;3.538;2022-09-01T02:33:05;1.52;;;0.30;;
47715;SDS011;33476;50.984;3.538;2022-09-01T02:35:33;1.85;;;0.30;;
47715;SDS011;33476;50.984;3.538;2022-09-01T02:38:02;2.00;;;0.30;;
47715;SDS011;33476;50.984;3.538;2022-09-01T02:40:29;1.45;;;0.35;;
47715;SDS011;33476;50.984;3.538;2022-09-01T02:42:55;2.15;;;0.30;;
47715;SDS011;33476;50.984;3.538;2022-09-01T02:45:22;4.80;;;0.40;;
47715;SDS011;33476;50.984;3.538;2022-09-01T02:47:48;5.32;;;0.35;;
47715;SDS011;33476;50.984;3.538;2022-09-01T02:50:16;2.10;;;0.20;;
47715;SDS011;33476;50.984;3.538;2022-09-01T02:52:44;1.52;;;0.50;;
47715;SDS011;33476;50.984;3.538;2022-09-01T02:55:12;4.15;;;0.35;;
47715;SDS011;33476;50.984;3.538;2022-09-01T02:57:38;1.60;;;0.40;;
47715;SDS011;33476;50.984;3.538;2022-09-01T03:00:05;1.48;;;0.30;;
47715;SDS011;33476;50.984;3.538;2022-09-01T03:02:45;2.00;;;0.40;;
47715;SDS011;33476;50.984;3.538;2022-09-01T03:05:15;2.15;;;0.30;;
47715;SDS011;33476;50.984;3.538;2022-09-01T03:07:49;4.60;;;0.60;;
47715;SDS011;33476;50.984;3.538;2022-09-01T03:10:21;9.30;;;0.60;;
47715;SDS011;33476;50.984;3.538;2022-09-01T03:12:48;1.40;;;0.20;;
47715;SDS011;33476;50.984;3.538;2022-09-01T03:15:13;5.78;;;0.45;;
47715;SDS011;33476;50.984;3.538;2022-09-01T03:17:39;7.43;;;0.40;;
47715;SDS011;33476;50.984;3.538;2022-09-01T03:20:05;1.83;;;0.30;;
47715;SDS011;33476;50.984;3.538;2022-09-01T03:22:31;1.80;;;0.30;;
47715;SDS011;33476;50.984;3.538;2022-09-01T03:24:57;3.03;;;0.38;;
47715;SDS011;33476;50.984;3.538;2022-09-01T03:27:23;3.28;;;0.30;;
47715;SDS011;33476;50.984;3.538;2022-09-01T03:29:48;3.72;;;0.30;;
47715;SDS011;33476;50.984;3.538;2022-09-01T03:32:14;2.67;;;0.30;;
47715;SDS011;33476;50.984;3.538;2022-09-01T03:34:39;3.28;;;0.40;;
47715;SDS011;33476;50.984;3.538;2022-09-01T03:37:05;4.32;;;0.30;;
47715;SDS011;33476;50.984;3.538;2022-09-01T03:39:32;2.03;;;0.30;;
47715;SDS011;33476;50.984;3.538;2022-09-01T03:41:58;3.85;;;0.55;;
47715;SDS011;33476;50.984;3.538;2022-09-01T03:44:24;3.28;;;0.40;;
47715;SDS011;33476;50.984;3.538;2022-09-01T03:46:50;4.45;;;0.50;;
47715;SDS011;33476;50.984;3.538;2022-09-01T03:49:16;0.70;;;0.20;;
47715;SDS011;33476;50.984;3.538;2022-09-01T03:51:49;2.05;;;0.38;;
47715;SDS011;33476;50.984;3.538;2022-09-01T03:54:18;1.95;;;0.40;;
47715;SDS011;33476;50.984;3.538;2022-09-01T03:56:43;4.55;;;0.43;;
47715;SDS011;33476;50.984;3.538;2022-09-01T03:59:09;7.07;;;0.60;;
47715;SDS011;33476;50.984;3.538;2022-09-01T04:01:41;4.88;;;0.45;;
47715;SDS011;33476;50.984;3.538;2022-09-01T04:04:08;4.78;;;0.40;;
47715;SDS011;33476;50.984;3.538;2022-09-01T04:06:38;2.55;;;0.40;;
47715;SDS011;33476;50.984;3.538;2022-09-01T04:09:04;7.47;;;0.60;;
47715;SDS011;33476;50.984;3.538;2022-09-01T04:11:30;1.40;;;0.40;;
47715;SDS011;33476;50.984;3.538;2022-09-01T04:13:56;1.42;;;0.47;;
47715;SDS011;33476;50.984;3.538;2022-09-01T04:16:23;1.95;;;0.40;;
47715;SDS011;33476;50.984;3.538;2022-09-01T04:19:10;4.13;;;0.40;;
47715;SDS011;33476;50.984;3.538;2022-09-01T04:21:44;2.60;;;0.28;;
47715;SDS011;33476;50.984;3.538;2022-09-01T04:24:10;2.50;;;0.50;;
47715;SDS011;33476;50.984;3.538;2022-09-01T04:26:38;4.88;;;0.68;;
47715;SDS011;33476;50.984;3.538;2022-09-01T04:29:05;3.25;;;0.55;;
47715;SDS011;33476;50.984;3.538;2022-09-01T04:31:33;1.42;;;0.40;;
47715;SDS011;33476;50.984;3.538;2022-09-01T04:34:01;2.50;;;0.50;;
47715;SDS011;33476;50.984;3.538;2022-09-01T04:36:27;8.07;;;0.70;;
47715;SDS011;33476;50.984;3.538;2022-09-01T04:38:57;3.13;;;0.50;;
47715;SDS011;33476;50.984;3.538;2022-09-01T04:41:26;1.40;;;0.45;;
47715;SDS011;33476;50.984;3.538;2022-09-01T04:43:55;6.53;;;0.65;;
47715;SDS011;33476;50.984;3.538;2022-09-01T04:46:23;2.45;;;0.40;;
47715;SDS011;33476;50.984;3.538;2022-09-01T04:48:52;1.67;;;0.60;;
47715;SDS011;33476;50.984;3.538;2022-09-01T04:51:18;3.25;;;0.63;;
47715;SDS011;33476;50.984;3.538;2022-09-01T04:53:44;1.90;;;0.50;;
47715;SDS011;33476;50.984;3.538;2022-09-01T04:56:13;6.00;;;0.57;;
47715;SDS011;33476;50.984;3.538;2022-09-01T04:58:39;4.38;;;0.55;;
47715;SDS011;33476;50.984;3.538;2022-09-01T05:01:18;2.38;;;0.57;;
47715;SDS011;33476;50.984;3.538;2022-09-01T05:03:45;1.60;;;0.55;;
47715;SDS011;33476;50.984;3.538;2022-09-01T05:06:26;2.60;;;0.73;;
47715;SDS011;33476;50.984;3.538;2022-09-01T05:08:53;5.10;;;0.77;;
47715;SDS011;33476;50.984;3.538;2022-09-01T05:11:21;8.82;;;0.85;;
47715;SDS011;33476;50.984;3.538;2022-09-01T05:13:48;3.63;;;0.60;;
47715;SDS011;33476;50.984;3.538;2022-09-01T05:16:15;4.03;;;0.77;;
47715;SDS011;33476;50.984;3.538;2022-09-01T05:18:46;1.67;;;0.57;;
47715;SDS011;33476;50.984;3.538;2022-09-01T05:21:13;3.90;;;0.75;;
47715;SDS011;33476;50.984;3.538;2022-09-01T05:23:42;4.38;;;0.65;;
47715;SDS011;33476;50.984;3.538;2022-09-01T05:26:12;1.67;;;0.70;;
47715;SDS011;33476;50.984;3.538;2022-09-01T05:28:46;1.42;;;0.43;;
47715;SDS011;33476;50.984;3.538;2022-09-01T05:31:13;3.33;;;0.60;;
47715;SDS011;33476;50.984;3.538;2022-09-01T05:36:10;3.95;;;0.60;;
47715;SDS011;33476;50.984;3.538;2022-09-01T05:38:37;5.50;;;0.70;;
47715;SDS011;33476;50.984;3.538;2022-09-01T05:41:06;1.35;;;0.55;;
47715;SDS011;33476;50.984;3.538;2022-09-01T05:43:34;4.47;;;0.85;;
47715;SDS011;33476;50.984;3.538;2022-09-01T05:46:01;3.33;;;0.73;;
47715;SDS011;33476;50.984;3.538;2022-09-01T05:50:58;2.58;;;0.55;;
47715;SDS011;33476;50.984;3.538;2022-09-01T05:53:27;3.75;;;0.85;;
47715;SDS011;33476;50.984;3.538;2022-09-01T05:58:24;3.38;;;0.70;;
47715;SDS011;33476;50.984;3.538;2022-09-01T06:00:52;5.22;;;1.02;;
47715;SDS011;33476;50.984;3.538;2022-09-01T06:03:20;4.28;;;1.10;;
47715;SDS011;33476;50.984;3.538;2022-09-01T06:05:47;2.47;;;0.88;;
47715;SDS011;33476;50.984;3.538;2022-09-01T06:08:17;7.60;;;1.02;;
47715;SDS011;33476;50.984;3.538;2022-09-01T06:10:45;4.03;;;1.05;;
47715;SDS011;33476;50.984;3.538;2022-09-01T06:13:12;2.40;;;0.93;;
47715;SDS011;33476;50.984;3.538;2022-09-01T06:15:40;6.00;;;0.80;;
47715;SDS011;33476;50.984;3.538;2022-09-01T06:18:07;2.90;;;0.98;;
47715;SDS011;33476;50.984;3.538;2022-09-01T06:20:39;6.00;;;1.10;;
47715;SDS011;33476;50.984;3.538;2022-09-01T06:23:05;2.00;;;0.70;;
47715;SDS011;33476;50.984;3.538;2022-09-01T06:25:31;2.78;;;0.80;;
47715;SDS011;33476;50.984;3.538;2022-09-01T06:28:00;8.20;;;1.10;;
47715;SDS011;33476;50.984;3.538;2022-09-01T06:30:28;6.53;;;1.35;;
47715;SDS011;33476;50.984;3.538;2022-09-01T06:32:54;4.53;;;1.55;;
47715;SDS011;33476;50.984;3.538;2022-09-01T06:35:20;5.60;;;1.40;;
47715;SDS011;33476;50.984;3.538;2022-09-01T06:37:53;5.13;;;1.15;;
47715;SDS011;33476;50.984;3.538;2022-09-01T06:40:22;8.82;;;1.67;;
47715;SDS011;33476;50.984;3.538;2022-09-01T06:42:49;4.97;;;1.50;;
47715;SDS011;33476;50.984;3.538;2022-09-01T06:45:17;9.32;;;1.92;;
47715;SDS011;33476;50.984;3.538;2022-09-01T06:47:45;4.57;;;1.58;;
47715;SDS011;33476;50.984;3.538;2022-09-01T06:50:15;4.30;;;1.80;;
47715;SDS011;33476;50.984;3.538;2022-09-01T06:52:43;7.38;;;2.00;;
47715;SDS011;33476;50.984;3.538;2022-09-01T06:55:09;3.17;;;1.35;;
47715;SDS011;33476;50.984;3.538;2022-09-01T06:57:36;5.63;;;2.25;;
47715;SDS011;33476;50.984;3.538;2022-09-01T07:00:07;4.85;;;1.83;;
47715;SDS011;33476;50.984;3.538;2022-09-01T07:02:53;4.97;;;1.98;;
47715;SDS011;33476;50.984;3.538;2022-09-01T07:05:21;7.65;;;1.80;;
47715;SDS011;33476;50.984;3.538;2022-09-01T07:07:51;4.72;;;1.55;;
47715;SDS011;33476;50.984;3.538;2022-09-01T07:10:20;8.23;;;2.30;;
47715;SDS011;33476;50.984;3.538;2022-09-01T07:12:47;3.25;;;1.95;;
47715;SDS011;33476;50.984;3.538;2022-09-01T07:15:14;6.50;;;2.03;;
47715;SDS011;33476;50.984;3.538;2022-09-01T07:17:41;8.73;;;2.40;;
47715;SDS011;33476;50.984;3.538;2022-09-01T07:20:14;7.30;;;2.47;;
47715;SDS011;33476;50.984;3.538;2022-09-01T07:22:40;5.68;;;2.15;;
47715;SDS011;33476;50.984;3.538;2022-09-01T07:25:05;9.13;;;2.30;;
47715;SDS011;33476;50.984;3.538;2022-09-01T07:27:36;7.10;;;2.13;;
47715;SDS011;33476;50.984;3.538;2022-09-01T07:30:04;3.03;;;2.00;;
47715;SDS011;33476;50.984;3.538;2022-09-01T07:32:32;6.68;;;2.50;;
47715;SDS011;33476;50.984;3.538;2022-09-01T07:34:58;8.35;;;2.05;;
47715;SDS011;33476;50.984;3.538;2022-09-01T07:37:24;6.10;;;2.20;;
47715;SDS011;33476;50.984;3.538;2022-09-01T07:39:51;9.68;;;2.70;;
47715;SDS011;33476;50.984;3.538;2022-09-01T07:42:18;8.98;;;2.53;;
47715;SDS011;33476;50.984;3.538;2022-09-01T07:44:43;7.00;;;2.28;;
47715;SDS011;33476;50.984;3.538;2022-09-01T07:47:09;8.18;;;2.25;;
47715;SDS011;33476;50.984;3.538;2022-09-01T07:49:35;8.70;;;2.17;;
47715;SDS011;33476;50.984;3.538;2022-09-01T07:52:02;4.65;;;2.90;;
47715;SDS011;33476;50.984;3.538;2022-09-01T07:54:29;6.38;;;2.58;;
47715;SDS011;33476;50.984;3.538;2022-09-01T07:56:55;5.43;;;2.58;;
47715;SDS011;33476;50.984;3.538;2022-09-01T07:59:21;9.15;;;2.92;;
47715;SDS011;33476;50.984;3.538;2022-09-01T08:01:46;6.85;;;2.63;;
47715;SDS011;33476;50.984;3.538;2022-09-01T08:04:12;6.32;;;2.50;;
47715;SDS011;33476;50.984;3.538;2022-09-01T08:06:38;7.13;;;2.55;;
47715;SDS011;33476;50.984;3.538;2022-09-01T08:09:03;6.28;;;2.53;;
47715;SDS011;33476;50.984;3.538;2022-09-01T08:11:35;7.18;;;2.50;;
47715;SDS011;33476;50.984;3.538;2022-09-01T08:14:01;8.05;;;2.55;;
47715;SDS011;33476;50.984;3.538;2022-09-01T08:16:29;5.22;;;2.60;;
47715;SDS011;33476;50.984;3.538;2022-09-01T08:18:56;5.78;;;2.80;;
47715;SDS011;33476;50.984;3.538;2022-09-01T08:21:22;5.75;;;2.60;;
47715;SDS011;33476;50.984;3.538;2022-09-01T08:23:49;5.40;;;2.42;;
47715;SDS011;33476;50.984;3.538;2022-09-01T08:26:16;7.40;;;2.65;;
47715;SDS011;33476;50.984;3.538;2022-09-01T08:28:43;5.32;;;2.08;;
47715;SDS011;33476;50.984;3.538;2022-09-01T08:31:09;9.30;;;2.47;;
47715;SDS011;33476;50.984;3.538;2022-09-01T08:33:39;8.57;;;2.35;;
47715;SDS011;33476;50.984;3.538;2022-09-01T08:36:09;8.35;;;2.80;;
47715;SDS011;33476;50.984;3.538;2022-09-01T08:38:37;9.50;;;2.72;;
47715;SDS011;33476;50.984;3.538;2022-09-01T08:41:04;4.25;;;2.38;;
47715;SDS011;33476;50.984;3.538;2022-09-01T08:46:33;7.15;;;2.58;;
47715;SDS011;33476;50.984;3.538;2022-09-01T08:49:20;3.43;;;1.93;;
47715;SDS011;33476;50.984;3.538;2022-09-01T08:51:49;8.07;;;2.20;;
47715;SDS011;33476;50.984;3.538;2022-09-01T08:57:23;10.27;;;3.57;;
47715;SDS011;33476;50.984;3.538;2022-09-01T08:59:54;6.43;;;2.03;;
47715;SDS011;33476;50.984;3.538;2022-09-01T09:02:26;6.68;;;2.72;;
47715;SDS011;33476;50.984;3.538;2022-09-01T09:04:59;4.90;;;2.53;;
47715;SDS011;33476;50.984;3.538;2022-09-01T09:10:36;8.68;;;2.67;;
47715;SDS011;33476;50.984;3.538;2022-09-01T09:19:10;6.35;;;2.10;;
47715;SDS011;33476;50.984;3.538;2022-09-01T09:21:46;7.57;;;2.35;;
47715;SDS011;33476;50.984;3.538;2022-09-01T09:26:54;7.13;;;3.00;;
47715;SDS011;33476;50.984;3.538;2022-09-01T09:29:22;6.20;;;3.08;;
47715;SDS011;33476;50.984;3.538;2022-09-01T09:31:51;14.63;;;3.13;;
47715;SDS011;33476;50.984;3.538;2022-09-01T09:37:15;7.22;;;2.63;;
47715;SDS011;33476;50.984;3.538;2022-09-01T09:39:41;9.90;;;2.22;;
47715;SDS011;33476;50.984;3.538;2022-09-01T09:42:09;3.75;;;2.13;;
47715;SDS011;33476;50.984;3.538;2022-09-01T09:44:40;5.57;;;2.00;;
47715;SDS011;33476;50.984;3.538;2022-09-01T09:47:09;4.05;;;1.73;;
47715;SDS011;33476;50.984;3.538;2022-09-01T09:50:09;5.95;;;1.77;;
47715;SDS011;33476;50.984;3.538;2022-09-01T09:52:38;6.18;;;1.95;;
47715;SDS011;33476;50.984;3.538;2022-09-01T09:55:06;5.85;;;1.50;;
47715;SDS011;33476;50.984;3.538;2022-09-01T09:57:42;6.35;;;1.80;;
47715;SDS011;33476;50.984;3.538;2022-09-01T10:00:18;3.17;;;1.42;;
47715;SDS011;33476;50.984;3.538;2022-09-01T10:02:44;5.47;;;1.50;;
47715;SDS011;33476;50.984;3.538;2022-09-01T10:08:01;3.80;;;1.50;;
47715;SDS011;33476;50.984;3.538;2022-09-01T10:13:16;4.45;;;1.42;;
47715;SDS011;33476;50.984;3.538;2022-09-01T10:15:50;3.03;;;1.50;;
47715;SDS011;33476;50.984;3.538;2022-09-01T10:18:19;4.97;;;1.77;;
47715;SDS011;33476;50.984;3.538;2022-09-01T10:20:55;3.77;;;1.40;;
47715;SDS011;33476;50.984;3.538;2022-09-01T10:23:24;6.38;;;1.70;;
47715;SDS011;33476;50.984;3.538;2022-09-01T10:25:53;6.18;;;1.55;;
47715;SDS011;33476;50.984;3.538;2022-09-01T10:28:24;2.78;;;1.48;;
47715;SDS011;33476;50.984;3.538;2022-09-01T10:30:54;11.55;;;1.30;;
47715;SDS011;33476;50.984;3.538;2022-09-01T10:33:20;2.80;;;1.10;;
47715;SDS011;33476;50.984;3.538;2022-09-01T10:35:50;6.38;;;1.23;;
47715;SDS011;33476;50.984;3.538;2022-09-01T10:38:21;3.65;;;1.02;;
47715;SDS011;33476;50.984;3.538;2022-09-01T10:40:53;8.13;;;0.90;;
47715;SDS011;33476;50.984;3.538;2022-09-01T10:43:39;2.78;;;1.42;;
47715;SDS011;33476;50.984;3.538;2022-09-01T10:46:17;1.83;;;1.02;;
47715;SDS011;33476;50.984;3.538;2022-09-01T10:48:57;1.45;;;0.57;;
47715;SDS011;33476;50.984;3.538;2022-09-01T10:53:48;4.95;;;0.75;;
47715;SDS011;33476;50.984;3.538;2022-09-01T10:59:26;2.58;;;0.80;;
47715;SDS011;33476;50.984;3.538;2022-09-01T11:04:22;1.80;;;0.52;;
47715;SDS011;33476;50.984;3.538;2022-09-01T11:09:44;1.13;;;0.70;;
47715;SDS011;33476;50.984;3.538;2022-09-01T11:14:50;2.65;;;0.90;;
47715;SDS011;33476;50.984;3.538;2022-09-01T11:20:25;2.47;;;1.40;;
47715;SDS011;33476;50.984;3.538;2022-09-01T11:28:56;3.72;;;0.90;;
47715;SDS011;33476;50.984;3.538;2022-09-01T11:31:36;1.33;;;0.77;;
47715;SDS011;33476;50.984;3.538;2022-09-01T11:34:11;2.97;;;0.77;;
47715;SDS011;33476;50.984;3.538;2022-09-01T11:44:35;4.38;;;0.52;;
47715;SDS011;33476;50.984;3.538;2022-09-01T11:47:24;5.07;;;0.50;;
47715;SDS011;33476;50.984;3.538;2022-09-01T11:49:54;1.73;;;0.60;;
47715;SDS011;33476;50.984;3.538;2022-09-01T11:52:26;2.35;;;0.70;;
47715;SDS011;33476;50.984;3.538;2022-09-01T11:54:54;2.25;;;0.55;;
47715;SDS011;33476;50.984;3.538;2022-09-01T11:57:28;4.13;;;0.70;;
47715;SDS011;33476;50.984;3.538;2022-09-01T12:00:04;3.20;;;0.60;;
47715;SDS011;33476;50.984;3.538;2022-09-01T12:02:48;3.05;;;0.60;;
47715;SDS011;33476;50.984;3.538;2022-09-01T12:05:31;0.80;;;0.50;;
47715;SDS011;33476;50.984;3.538;2022-09-01T12:07:59;4.40;;;0.50;;
47715;SDS011;33476;50.984;3.538;2022-09-01T12:10:29;4.68;;;0.50;;
47715;SDS011;33476;50.984;3.538;2022-09-01T12:13:01;3.95;;;0.70;;
47715;SDS011;33476;50.984;3.538;2022-09-01T12:15:33;2.00;;;0.75;;
47715;SDS011;33476;50.984;3.538;2022-09-01T12:18:18;10.48;;;0.70;;
47715;SDS011;33476;50.984;3.538;2022-09-01T12:21:05;3.80;;;0.60;;
47715;SDS011;33476;50.984;3.538;2022-09-01T12:23:39;1.98;;;0.60;;
47715;SDS011;33476;50.984;3.538;2022-09-01T12:28:34;2.25;;;0.43;;
47715;SDS011;33476;50.984;3.538;2022-09-01T12:31:04;3.42;;;0.65;;
47715;SDS011;33476;50.984;3.538;2022-09-01T12:33:32;2.30;;;0.50;;
47715;SDS011;33476;50.984;3.538;2022-09-01T12:38:48;6.07;;;0.70;;
47715;SDS011;33476;50.984;3.538;2022-09-01T12:41:36;2.10;;;0.50;;
47715;SDS011;33476;50.984;3.538;2022-09-01T12:46:55;7.05;;;0.60;;
47715;SDS011;33476;50.984;3.538;2022-09-01T12:49:49;3.17;;;0.70;;
47715;SDS011;33476;50.984;3.538;2022-09-01T12:54:43;3.50;;;0.68;;
47715;SDS011;33476;50.984;3.538;2022-09-01T13:03:26;3.45;;;0.80;;
47715;SDS011;33476;50.984;3.538;2022-09-01T13:05:42;4.07;;;0.60;;
47715;SDS011;33476;50.984;3.538;2022-09-01T13:08:12;2.95;;;0.85;;
47715;SDS011;33476;50.984;3.538;2022-09-01T13:10:42;2.65;;;0.45;;
47715;SDS011;33476;50.984;3.538;2022-09-01T13:13:10;2.15;;;0.70;;
47715;SDS011;33476;50.984;3.538;2022-09-01T13:15:38;1.17;;;0.40;;
47715;SDS011;33476;50.984;3.538;2022-09-01T13:18:05;1.02;;;0.50;;
47715;SDS011;33476;50.984;3.538;2022-09-01T13:20:30;2.17;;;0.70;;
47715;SDS011;33476;50.984;3.538;2022-09-01T13:22:56;1.95;;;0.43;;
47715;SDS011;33476;50.984;3.538;2022-09-01T13:25:21;2.03;;;0.57;;
47715;SDS011;33476;50.984;3.538;2022-09-01T13:27:48;3.35;;;0.50;;
47715;SDS011;33476;50.984;3.538;2022-09-01T13:30:15;1.10;;;0.32;;
47715;SDS011;33476;50.984;3.538;2022-09-01T13:32:42;1.23;;;0.40;;
47715;SDS011;33476;50.984;3.538;2022-09-01T13:35:10;5.95;;;0.55;;
47715;SDS011;33476;50.984;3.538;2022-09-01T13:37:36;3.08;;;0.50;;
47715;SDS011;33476;50.984;3.538;2022-09-01T13:40:03;0.80;;;0.40;;
47715;SDS011;33476;50.984;3.538;2022-09-01T13:42:31;1.67;;;0.40;;
47715;SDS011;33476;50.984;3.538;2022-09-01T13:44:56;1.85;;;0.52;;
47715;SDS011;33476;50.984;3.538;2022-09-01T13:47:21;6.40;;;0.50;;
47715;SDS011;33476;50.984;3.538;2022-09-01T13:49:48;2.45;;;0.47;;
47715;SDS011;33476;50.984;3.538;2022-09-01T13:52:13;3.97;;;0.73;;
47715;SDS011;33476;50.984;3.538;2022-09-01T13:54:39;4.90;;;0.68;;
47715;SDS011;33476;50.984;3.538;2022-09-01T13:57:04;0.88;;;0.50;;
47715;SDS011;33476;50.984;3.538;2022-09-01T13:59:30;5.85;;;0.60;;
47715;SDS011;33476;50.984;3.538;2022-09-01T14:01:56;1.83;;;0.40;;
47715;SDS011;33476;50.984;3.538;2022-09-01T14:04:22;3.15;;;0.50;;
47715;SDS011;33476;50.984;3.538;2022-09-01T14:06:47;1.10;;;0.43;;
47715;SDS011;33476;50.984;3.538;2022-09-01T14:09:13;1.88;;;0.40;;
47715;SDS011;33476;50.984;3.538;2022-09-01T14:11:39;2.78;;;0.40;;
47715;SDS011;33476;50.984;3.538;2022-09-01T14:14:04;1.95;;;0.40;;
47715;SDS011;33476;50.984;3.538;2022-09-01T14:16:30;2.63;;;0.40;;
47715;SDS011;33476;50.984;3.538;2022-09-01T14:18:56;2.38;;;0.40;;
47715;SDS011;33476;50.984;3.538;2022-09-01T14:21:23;2.20;;;0.57;;
47715;SDS011;33476;50.984;3.538;2022-09-01T14:23:49;5.07;;;0.40;;
47715;SDS011;33476;50.984;3.538;2022-09-01T14:26:14;4.20;;;0.60;;
47715;SDS011;33476;50.984;3.538;2022-09-01T14:28:41;3.30;;;0.40;;
47715;SDS011;33476;50.984;3.538;2022-09-01T14:31:12;1.35;;;0.40;;
47715;SDS011;33476;50.984;3.538;2022-09-01T14:33:40;2.42;;;0.30;;
47715;SDS011;33476;50.984;3.538;2022-09-01T14:36:06;5.88;;;0.60;;
47715;SDS011;33476;50.984;3.538;2022-09-01T14:38:33;4.07;;;0.50;;
47715;SDS011;33476;50.984;3.538;2022-09-01T14:40:59;1.17;;;0.40;;
47715;SDS011;33476;50.984;3.538;2022-09-01T14:43:26;1.48;;;0.40;;
47715;SDS011;33476;50.984;3.538;2022-09-01T14:46:02;3.45;;;0.43;;
47715;SDS011;33476;50.984;3.538;2022-09-01T14:48:30;2.53;;;0.40;;
47715;SDS011;33476;50.984;3.538;2022-09-01T14:50:57;1.25;;;0.40;;
47715;SDS011;33476;50.984;3.538;2022-09-01T14:53:22;1.45;;;0.40;;
47715;SDS011;33476;50.984;3.538;2022-09-01T14:55:48;3.03;;;0.40;;
47715;SDS011;33476;50.984;3.538;2022-09-01T14:58:13;3.92;;;0.60;;
47715;SDS011;33476;50.984;3.538;2022-09-01T15:00:39;1.92;;;0.40;;
47715;SDS011;33476;50.984;3.538;2022-09-01T15:03:06;2.60;;;0.40;;
47715;SDS011;33476;50.984;3.538;2022-09-01T15:05:34;1.95;;;0.30;;
47715;SDS011;33476;50.984;3.538;2022-09-01T15:08:00;2.83;;;0.40;;
47715;SDS011;33476;50.984;3.538;2022-09-01T15:10:25;5.43;;;0.57;;
47715;SDS011;33476;50.984;3.538;2022-09-01T15:12:55;3.15;;;0.40;;
47715;SDS011;33476;50.984;3.538;2022-09-01T15:15:21;1.70;;;0.40;;
47715;SDS011;33476;50.984;3.538;2022-09-01T15:17:48;3.88;;;0.40;;
47715;SDS011;33476;50.984;3.538;2022-09-01T15:20:14;2.05;;;0.43;;
47715;SDS011;33476;50.984;3.538;2022-09-01T15:22:59;2.65;;;0.43;;
47715;SDS011;33476;50.984;3.538;2022-09-01T15:25:25;1.70;;;0.30;;
47715;SDS011;33476;50.984;3.538;2022-09-01T15:27:51;2.88;;;0.30;;
47715;SDS011;33476;50.984;3.538;2022-09-01T15:30:16;9.60;;;0.40;;
47715;SDS011;33476;50.984;3.538;2022-09-01T15:32:43;2.20;;;0.30;;
47715;SDS011;33476;50.984;3.538;2022-09-01T15:35:11;2.63;;;0.38;;
47715;SDS011;33476;50.984;3.538;2022-09-01T15:37:37;1.98;;;0.28;;
47715;SDS011;33476;50.984;3.538;2022-09-01T15:40:04;5.22;;;0.30;;
47715;SDS011;33476;50.984;3.538;2022-09-01T15:42:33;2.20;;;0.30;;
47715;SDS011;33476;50.984;3.538;2022-09-01T15:45:00;2.17;;;0.50;;
47715;SDS011;33476;50.984;3.538;2022-09-01T15:47:26;1.67;;;0.50;;
47715;SDS011;33476;50.984;3.538;2022-09-01T15:49:51;2.92;;;0.40;;
47715;SDS011;33476;50.984;3.538;2022-09-01T15:52:16;9.30;;;0.60;;
47715;SDS011;33476;50.984;3.538;2022-09-01T15:54:42;2.05;;;0.50;;
47715;SDS011;33476;50.984;3.538;2022-09-01T15:57:08;2.78;;;0.57;;
47715;SDS011;33476;50.984;3.538;2022-09-01T15:59:33;2.55;;;0.50;;
47715;SDS011;33476;50.984;3.538;2022-09-01T16:01:59;2.38;;;0.50;;
47715;SDS011;33476;50.984;3.538;2022-09-01T16:04:24;3.13;;;0.22;;
47715;SDS011;33476;50.984;3.538;2022-09-01T16:06:49;2.67;;;0.47;;
47715;SDS011;33476;50.984;3.538;2022-09-01T16:09:16;3.88;;;0.40;;
47715;SDS011;33476;50.984;3.538;2022-09-01T16:11:43;2.78;;;0.40;;
47715;SDS011;33476;50.984;3.538;2022-09-01T16:14:08;4.15;;;0.50;;
47715;SDS011;33476;50.984;3.538;2022-09-01T16:16:44;1.25;;;0.50;;
47715;SDS011;33476;50.984;3.538;2022-09-01T16:19:38;2.80;;;0.43;;
47715;SDS011;33476;50.984;3.538;2022-09-01T16:22:20;2.35;;;0.40;;
47715;SDS011;33476;50.984;3.538;2022-09-01T16:24:48;3.17;;;0.57;;